createdAt,value
2023-10-28T00:03:38.576Z,10.05
2023-10-28T00:08:42.066Z,9.20
2023-10-28T00:13:45.546Z,9.80
2023-10-28T00:18:50.507Z,9.02
2023-10-28T00:23:54.067Z,10.27
2023-10-28T00:28:57.641Z,9.35
2023-10-28T00:34:02.561Z,9.30
2023-10-28T00:39:07.919Z,11.52
2023-10-28T00:44:11.422Z,10.43
2023-10-28T00:49:16.745Z,8.88
2023-10-28T00:54:20.325Z,9.10
2023-10-28T00:59:24.784Z,10.02
2023-10-28T01:04:29.810Z,10.30
2023-10-28T01:09:33.862Z,8.20
2023-10-28T01:14:37.264Z,9.13
2023-10-28T01:19:42.583Z,8.98
2023-10-28T01:24:48.136Z,10.38
2023-10-28T01:29:52.331Z,8.35
2023-10-28T01:34:56.544Z,9.38
2023-10-28T01:40:01.472Z,10.30
2023-10-28T01:45:08.428Z,10.00
2023-10-28T01:50:13.518Z,7.82
2023-10-28T01:55:19.259Z,9.52
2023-10-28T02:00:22.811Z,8.38
2023-10-28T02:05:26.487Z,8.88
2023-10-28T02:10:31.597Z,8.25
2023-10-28T02:15:35.356Z,8.25
2023-10-28T02:20:38.985Z,9.07
2023-10-28T02:25:44.561Z,7.70
2023-10-28T02:30:48.138Z,7.88
2023-10-28T02:35:51.668Z,8.13
2023-10-28T02:40:56.821Z,8.27
2023-10-28T02:46:00.487Z,8.00
2023-10-28T02:51:08.371Z,9.35
2023-10-28T02:56:13.550Z,9.88
2023-10-28T03:01:17.507Z,8.05
2023-10-28T03:06:20.954Z,9.55
2023-10-28T03:11:25.986Z,8.55
2023-10-28T03:16:29.551Z,8.13
2023-10-28T03:21:33.087Z,8.75
2023-10-28T03:26:38.386Z,7.88
2023-10-28T03:31:42.174Z,8.23
2023-10-28T03:36:46.105Z,8.60
2023-10-28T03:41:51.185Z,7.90
2023-10-28T03:46:54.732Z,8.68
2023-10-28T03:52:00.139Z,8.50
2023-10-28T03:57:05.338Z,9.60
2023-10-28T04:02:09.478Z,11.40
2023-10-28T04:07:13.027Z,9.38
2023-10-28T04:12:18.283Z,8.43
2023-10-28T04:17:21.898Z,7.93
2023-10-28T04:22:25.333Z,9.93
2023-10-28T04:27:30.353Z,10.13
2023-10-28T04:32:34.374Z,8.50
2023-10-28T04:37:37.978Z,10.20
2023-10-28T04:42:43.242Z,9.40
2023-10-28T04:47:46.950Z,9.05
2023-10-28T04:52:50.839Z,10.25
2023-10-28T04:57:55.861Z,11.15
2023-10-28T05:02:59.556Z,10.98
2023-10-28T05:08:03.179Z,8.63
2023-10-28T05:13:08.281Z,7.93
2023-10-28T05:18:12.028Z,8.35
2023-10-28T05:23:15.939Z,7.75
2023-10-28T05:28:21.226Z,7.55
2023-10-28T05:33:24.860Z,8.02
2023-10-28T05:38:28.351Z,8.35
2023-10-28T05:43:33.519Z,7.35
2023-10-28T05:48:37.089Z,8.25
2023-10-28T05:53:41.017Z,7.65
2023-10-28T05:58:45.994Z,6.63
2023-10-28T06:03:50.960Z,6.90
2023-10-28T06:08:54.725Z,6.50
2023-10-28T06:13:59.639Z,8.23
2023-10-28T06:19:03.365Z,8.30
2023-10-28T06:24:08.622Z,6.70
2023-10-28T06:29:13.699Z,6.95
2023-10-28T06:34:17.704Z,7.57
2023-10-28T06:39:21.585Z,7.88
2023-10-28T06:44:26.496Z,8.77
2023-10-28T06:49:30.254Z,8.02
2023-10-28T06:54:33.782Z,10.73
2023-10-28T06:59:38.812Z,9.93
2023-10-28T07:04:43.076Z,8.43
2023-10-28T07:09:47.237Z,10.70
2023-10-28T07:14:52.422Z,9.70
2023-10-28T07:19:56.088Z,8.63
2023-10-28T07:24:59.704Z,7.53
2023-10-28T07:30:05.161Z,7.85
2023-10-28T07:35:10.094Z,7.55
2023-10-28T07:40:14.377Z,8.57
2023-10-28T07:45:21.569Z,7.20
2023-10-28T07:50:25.281Z,5.93
2023-10-28T07:55:29.887Z,5.13
2023-10-28T08:00:35.294Z,6.82
2023-10-28T08:05:38.923Z,6.25
2023-10-28T08:10:42.988Z,6.72
2023-10-28T08:15:50.954Z,8.70
2023-10-28T08:20:54.878Z,8.57
2023-10-28T08:25:58.869Z,9.27
2023-10-28T08:31:04.792Z,9.05
2023-10-28T08:36:09.967Z,8.15
2023-10-28T08:41:15.778Z,7.82
2023-10-28T08:46:21.355Z,8.05
2023-10-28T08:51:26.296Z,7.85
2023-10-28T08:56:32.486Z,6.72
2023-10-28T09:01:38.935Z,6.95
2023-10-28T09:06:44.086Z,5.85
2023-10-28T09:11:49.125Z,6.43
2023-10-28T09:16:56.568Z,5.13
2023-10-28T09:22:01.968Z,5.43
2023-10-28T09:27:06.096Z,4.70
2023-10-28T09:32:12.011Z,5.00
2023-10-28T09:37:17.317Z,4.72
2023-10-28T09:42:23.099Z,4.80
2023-10-28T09:47:36.339Z,4.90
2023-10-28T09:52:44.144Z,4.57
2023-10-28T09:57:48.140Z,5.13
2023-10-28T10:03:05.512Z,4.65
2023-10-28T10:08:20.203Z,4.50
2023-10-28T10:13:24.526Z,3.33
2023-10-28T10:18:35.249Z,4.38
2023-10-28T10:23:44.138Z,3.65
2023-10-28T10:28:48.872Z,3.08
2023-10-28T10:34:05.391Z,3.97
2023-10-28T10:39:16.214Z,3.85
2023-10-28T10:44:26.346Z,4.35
2023-10-28T10:49:32.538Z,4.18
2023-10-28T10:54:40.247Z,3.53
2023-10-28T10:59:45.402Z,3.83
2023-10-28T11:04:50.824Z,3.88
2023-10-28T11:09:55.462Z,3.45
2023-10-28T11:14:59.116Z,3.80
2023-10-28T11:20:06.265Z,3.38
2023-10-28T11:25:10.499Z,3.42
2023-10-28T11:30:14.521Z,3.50
2023-10-28T11:35:21.422Z,3.42
2023-10-28T11:40:25.178Z,3.00
2023-10-28T11:45:29.170Z,3.55
2023-10-28T11:50:34.354Z,3.60
2023-10-28T11:55:39.812Z,3.42
2023-10-28T12:00:43.548Z,2.97
2023-10-28T12:05:48.655Z,2.92
2023-10-28T12:10:52.374Z,2.72
2023-10-28T12:15:56.407Z,2.63
2023-10-28T12:21:03.108Z,2.75
2023-10-28T12:26:08.127Z,2.60
2023-10-28T12:31:11.829Z,1.65
2023-10-28T12:36:18.291Z,2.15
2023-10-28T12:41:22.208Z,2.25
2023-10-28T12:46:26.083Z,2.47
2023-10-28T12:51:35.923Z,2.15
2023-10-28T12:56:41.368Z,2.00
2023-10-28T13:01:46.605Z,1.98
2023-10-28T13:06:52.941Z,2.08
2023-10-28T13:11:57.974Z,2.50
2023-10-28T13:17:02.025Z,1.70
2023-10-28T13:22:08.144Z,2.00
2023-10-28T13:27:12.992Z,2.00
2023-10-28T13:32:17.156Z,1.88
2023-10-28T13:37:22.805Z,2.15
2023-10-28T13:42:27.448Z,2.30
2023-10-28T13:47:31.369Z,2.10
2023-10-28T13:52:37.490Z,2.65
2023-10-28T13:57:41.068Z,3.83
2023-10-28T14:02:46.431Z,3.83
2023-10-28T14:07:51.518Z,4.13
2023-10-28T14:12:59.212Z,4.75
2023-10-28T14:18:05.615Z,4.88
2023-10-28T14:23:12.231Z,4.03
2023-10-28T14:28:18.453Z,4.40
2023-10-28T14:33:21.980Z,4.35
2023-10-28T14:38:27.673Z,3.20
2023-10-28T14:43:34.484Z,3.08
2023-10-28T14:48:39.074Z,2.95
2023-10-28T14:53:44.857Z,2.40
2023-10-28T14:58:48.743Z,2.30
2023-10-28T15:03:53.181Z,2.50
2023-10-28T15:08:58.576Z,2.65
2023-10-28T15:14:02.197Z,2.85
2023-10-28T15:19:06.794Z,1.92
2023-10-28T15:24:12.195Z,2.35
2023-10-28T15:29:16.069Z,3.30
2023-10-28T15:34:19.783Z,2.50
2023-10-28T15:39:25.502Z,2.55
2023-10-28T15:44:32.311Z,2.42
2023-10-28T15:49:37.820Z,3.00
2023-10-28T15:54:44.032Z,2.65
2023-10-28T15:59:48.333Z,1.90
2023-10-28T16:04:52.740Z,2.67
2023-10-28T16:09:59.271Z,2.17
2023-10-28T16:15:10.343Z,2.88
2023-10-28T16:20:15.809Z,3.13
2023-10-28T16:25:21.064Z,2.10
2023-10-28T16:30:24.864Z,2.85
2023-10-28T16:35:30.166Z,3.30
2023-10-28T16:40:37.024Z,2.75
2023-10-28T16:45:40.963Z,2.35
2023-10-28T16:50:44.495Z,3.28
2023-10-28T16:55:49.504Z,3.30
2023-10-28T17:00:54.591Z,3.42
2023-10-28T17:05:58.729Z,2.92
2023-10-28T17:11:04.858Z,3.03
2023-10-28T17:16:16.245Z,3.05
2023-10-28T17:21:21.173Z,2.65
2023-10-28T17:26:27.635Z,2.65
2023-10-28T17:31:31.831Z,2.67
2023-10-28T17:36:35.517Z,3.30
2023-10-28T17:41:41.667Z,3.08
2023-10-28T17:46:49.795Z,3.15
2023-10-28T17:51:57.199Z,3.38
2023-10-28T17:57:03.165Z,2.95
2023-10-28T18:02:07.138Z,2.92
2023-10-28T18:07:15.446Z,2.95
2023-10-28T18:12:20.642Z,3.70
2023-10-28T18:17:25.685Z,2.78
2023-10-28T18:22:29.315Z,3.10
2023-10-28T18:27:34.295Z,3.17
2023-10-28T18:32:41.046Z,3.33
2023-10-28T18:37:44.726Z,3.35
2023-10-28T18:42:49.832Z,3.22
2023-10-28T18:47:54.905Z,3.03
2023-10-28T18:52:59.606Z,2.75
2023-10-28T18:58:06.191Z,3.13
2023-10-28T19:03:14.707Z,3.38
2023-10-28T19:08:19.932Z,2.95
2023-10-28T19:13:25.538Z,3.78
2023-10-28T19:18:29.264Z,2.20
2023-10-28T19:23:33.337Z,3.17
2023-10-28T19:28:39.204Z,2.40
2023-10-28T19:33:44.219Z,3.30
2023-10-28T19:38:48.117Z,3.15
2023-10-28T19:43:53.839Z,3.00
2023-10-28T19:48:57.775Z,2.40
2023-10-28T19:54:01.459Z,2.33
2023-10-28T19:59:08.806Z,2.17
2023-10-28T20:04:12.397Z,2.40
2023-10-28T20:09:16.791Z,2.28
2023-10-28T20:14:22.299Z,2.30
2023-10-28T20:19:26.558Z,2.72
2023-10-28T20:24:31.059Z,2.20
2023-10-28T20:29:38.946Z,2.28
2023-10-28T20:34:42.599Z,2.47
2023-10-28T20:39:47.845Z,2.65
2023-10-28T20:44:53.112Z,2.50
2023-10-28T20:49:56.972Z,2.58
2023-10-28T20:55:00.586Z,2.70
2023-10-28T21:00:06.570Z,2.60
2023-10-28T21:05:12.008Z,2.50
2023-10-28T21:10:17.508Z,2.20
2023-10-28T21:15:22.968Z,2.38
2023-10-28T21:20:26.485Z,2.63
2023-10-28T21:25:30.101Z,2.90
2023-10-28T21:30:35.694Z,2.58
2023-10-28T21:35:39.196Z,3.17
2023-10-28T21:40:44.159Z,3.05
2023-10-28T21:45:58.570Z,3.03
2023-10-28T21:51:02.123Z,3.65
2023-10-28T21:56:07.013Z,3.00
2023-10-28T22:01:12.857Z,3.75
2023-10-28T22:06:16.375Z,4.28
2023-10-28T22:11:19.905Z,4.20
2023-10-28T22:16:25.709Z,4.97
2023-10-28T22:21:29.228Z,4.45
2023-10-28T22:26:32.823Z,5.72
2023-10-28T22:31:37.829Z,5.20
2023-10-28T22:36:41.430Z,4.97
2023-10-28T22:41:45.046Z,6.40
2023-10-28T22:46:50.148Z,3.65
2023-10-28T22:51:53.661Z,3.60
2023-10-28T22:56:57.204Z,3.40
2023-10-28T23:02:02.326Z,3.45
2023-10-28T23:07:06.238Z,3.50
2023-10-28T23:12:10.762Z,3.17
2023-10-28T23:17:15.690Z,2.88
2023-10-28T23:22:19.290Z,3.28
2023-10-28T23:27:24.019Z,2.95
2023-10-28T23:32:29.061Z,3.30
2023-10-28T23:37:34.703Z,2.92
2023-10-28T23:42:38.349Z,3.03
2023-10-28T23:47:44.407Z,3.00
2023-10-28T23:52:48.018Z,3.75
2023-10-28T23:57:52.058Z,4.00
